createdAt,value
2023-02-05T00:00:58.695Z,99567.25
2023-02-05T00:03:07.053Z,99568.13
2023-02-05T00:05:15.016Z,99572.50
2023-02-05T00:07:23.010Z,99566.38
2023-02-05T00:09:33.796Z,99569.88
2023-02-05T00:11:41.687Z,99561.16
2023-02-05T00:13:49.777Z,99571.66
2023-02-05T00:16:00.425Z,99569.88
2023-02-05T00:18:08.957Z,99567.25
2023-02-05T00:20:17.176Z,99559.38
2023-02-05T00:22:25.393Z,99559.38
2023-02-05T00:24:36.232Z,99557.63
2023-02-05T00:26:44.817Z,99553.22
2023-02-05T00:28:54.499Z,99555.00
2023-02-05T00:31:02.752Z,99554.13
2023-02-05T00:33:10.702Z,99554.16
2023-02-05T00:35:19.205Z,99553.25
2023-02-05T00:37:27.020Z,99550.66
2023-02-05T00:39:37.992Z,99545.44
2023-02-05T00:41:45.954Z,99544.56
2023-02-05T00:43:53.899Z,99541.06
2023-02-05T00:46:01.838Z,99544.53
2023-02-05T00:48:10.389Z,99543.69
2023-02-05T00:50:18.913Z,99546.31
2023-02-05T00:52:26.826Z,99548.03
2023-02-05T00:54:39.759Z,99546.28
2023-02-05T00:56:48.248Z,99553.28
2023-02-05T00:58:57.787Z,99548.91
2023-02-05T01:01:06.508Z,99547.19
2023-02-05T01:03:14.644Z,99555.03
2023-02-05T01:05:22.796Z,99553.28
2023-02-05T01:07:30.959Z,99546.25
2023-02-05T01:09:43.405Z,99543.63
2023-02-05T01:11:51.164Z,99542.81
2023-02-05T01:13:59.002Z,99548.03
2023-02-05T01:16:10.692Z,99543.69
2023-02-05T01:18:18.659Z,99543.66
2023-02-05T01:20:27.129Z,99543.69
2023-02-05T01:22:35.935Z,99538.41
2023-02-05T01:24:46.389Z,99539.28
2023-02-05T01:26:58.971Z,99535.81
2023-02-05T01:29:09.583Z,99531.41
2023-02-05T01:31:17.921Z,99529.69
2023-02-05T01:33:25.764Z,99521.81
2023-02-05T01:35:34.154Z,99520.06
2023-02-05T01:37:43.604Z,99530.59
2023-02-05T01:39:55.374Z,99526.22
2023-02-05T01:42:03.242Z,99525.34
2023-02-05T01:44:13.965Z,99521.00
2023-02-05T01:46:27.065Z,99515.72
2023-02-05T01:48:44.852Z,99508.75
2023-02-05T01:50:56.081Z,99505.25
2023-02-05T01:53:08.716Z,99506.13
2023-02-05T01:55:19.682Z,99498.28
2023-02-05T01:57:28.420Z,99492.16
2023-02-05T01:59:40.240Z,99489.53
2023-02-05T02:01:50.924Z,99486.94
2023-02-05T02:04:04.759Z,99490.41
2023-02-05T02:06:12.952Z,99484.28
2023-02-05T02:08:21.534Z,99480.81
2023-02-05T02:10:33.491Z,99476.44
2023-02-05T02:12:44.286Z,99470.31
2023-02-05T02:15:07.721Z,99461.56
2023-02-05T02:17:17.038Z,99458.06
2023-02-05T02:19:31.074Z,99466.81
2023-02-05T02:21:57.546Z,99465.97
2023-02-05T02:24:16.897Z,99461.59
2023-02-05T02:26:51.268Z,99461.56
2023-02-05T02:29:04.756Z,99458.97
2023-02-05T02:31:15.844Z,99456.34
2023-02-05T02:33:32.833Z,99447.59
2023-02-05T02:35:49.420Z,99445.88
2023-02-05T02:38:04.603Z,99438.88
2023-02-05T02:40:20.100Z,99435.38
2023-02-05T02:42:35.501Z,99438.00
2023-02-05T02:44:51.853Z,99439.75
2023-02-05T02:47:02.831Z,99430.13
2023-02-05T02:49:17.148Z,99431.00
2023-02-05T02:51:38.094Z,99434.50
2023-02-05T02:53:50.665Z,99432.75
2023-02-05T02:56:00.225Z,99426.66
2023-02-05T02:58:13.327Z,99421.41
2023-02-05T03:00:29.744Z,99417.94
2023-02-05T03:02:41.477Z,99410.91
2023-02-05T03:04:55.269Z,99401.31
2023-02-05T03:07:10.343Z,99404.81
2023-02-05T03:09:27.926Z,99403.94
2023-02-05T03:11:36.882Z,99389.13
2023-02-05T03:13:46.586Z,99399.56
2023-02-05T03:15:57.877Z,99398.69
2023-02-05T03:18:06.205Z,99396.94
2023-02-05T03:20:19.344Z,99399.59
2023-02-05T03:22:27.804Z,99409.19
2023-02-05T03:24:36.547Z,99407.44
2023-02-05T03:26:44.822Z,99404.84
2023-02-05T03:28:58.460Z,99395.22
2023-02-05T03:31:30.232Z,99398.72
2023-02-05T03:33:53.261Z,99394.34
2023-02-05T03:36:15.522Z,99402.19
2023-02-05T03:38:42.077Z,99398.69
2023-02-05T03:40:56.546Z,99392.59
2023-02-05T03:43:16.126Z,99386.50
2023-02-05T03:45:44.446Z,99389.09
2023-02-05T03:48:21.943Z,99378.63
2023-02-05T03:50:35.233Z,99380.38
2023-02-05T03:52:58.042Z,99375.13
2023-02-05T03:55:14.426Z,99369.91
2023-02-05T03:57:27.137Z,99367.28
2023-02-05T03:59:38.729Z,99376.00
2023-02-05T04:01:48.344Z,99376.03
2023-02-05T04:04:00.008Z,99381.25
2023-02-05T04:06:10.178Z,99376.03
2023-02-05T04:08:18.535Z,99367.28
2023-02-05T04:10:31.176Z,99357.69
2023-02-05T04:12:42.165Z,99348.06
2023-02-05T04:14:50.476Z,99345.44
2023-02-05T04:16:58.878Z,99344.59
2023-02-05T04:19:10.804Z,99353.31
2023-02-05T04:21:18.789Z,99344.59
2023-02-05T04:23:26.562Z,99341.09
2023-02-05T04:25:34.948Z,99345.47
2023-02-05T04:27:43.310Z,99345.47
2023-02-05T04:29:51.204Z,99341.97
2023-02-05T04:31:59.322Z,99331.50
2023-02-05T04:34:10.031Z,99330.63
2023-02-05T04:36:19.000Z,99333.22
2023-02-05T04:38:27.339Z,99325.38
2023-02-05T04:40:35.300Z,99331.47
2023-02-05T04:42:52.246Z,99324.50
2023-02-05T04:45:00.396Z,99333.22
2023-02-05T04:47:08.309Z,99330.59
2023-02-05T04:49:18.796Z,99329.75
2023-02-05T04:51:27.315Z,99332.34
2023-02-05T04:53:35.479Z,99334.06
2023-02-05T04:55:45.224Z,99334.94
2023-02-05T04:57:53.064Z,99331.44
2023-02-05T05:00:00.922Z,99323.63
2023-02-05T05:02:08.802Z,99327.97
2023-02-05T05:04:22.469Z,99328.84
2023-02-05T05:06:30.710Z,99328.84
2023-02-05T05:08:38.967Z,99325.38
2023-02-05T05:10:46.885Z,99316.63
2023-02-05T05:12:57.137Z,99313.16
2023-02-05T05:15:05.200Z,99317.50
2023-02-05T05:17:14.873Z,99320.09
2023-02-05T05:19:25.363Z,99326.22
2023-02-05T05:21:33.946Z,99333.19
2023-02-05T05:23:43.688Z,99334.06
2023-02-05T05:25:52.433Z,99332.31
2023-02-05T05:28:00.354Z,99331.47
2023-02-05T05:30:08.938Z,99339.31
2023-02-05T05:32:17.022Z,99333.22
2023-02-05T05:34:27.813Z,99341.09
2023-02-05T05:36:36.197Z,99338.47
2023-02-05T05:38:44.655Z,99321.88
2023-02-05T05:41:04.864Z,99334.13
2023-02-05T05:43:27.840Z,99342.81
2023-02-05T05:45:35.942Z,99345.44
2023-02-05T05:47:44.276Z,99343.72
2023-02-05T05:49:54.772Z,99348.94
2023-02-05T05:52:02.624Z,99353.28
2023-02-05T05:54:11.021Z,99357.66
2023-02-05T05:56:20.692Z,99365.53
2023-02-05T05:58:28.893Z,99365.53
2023-02-05T06:00:36.806Z,99370.78
2023-02-05T06:02:48.422Z,99358.56
2023-02-05T06:04:59.010Z,99355.06
2023-02-05T06:07:06.740Z,99346.31
2023-02-05T06:09:16.586Z,99347.22
2023-02-05T06:11:24.351Z,99346.34
2023-02-05T06:13:35.126Z,99345.47
2023-02-05T06:15:43.137Z,99348.94
2023-02-05T06:17:51.202Z,99342.84
2023-02-05T06:20:02.991Z,99343.72
2023-02-05T06:22:10.793Z,99355.94
2023-02-05T06:24:18.953Z,99353.31
2023-02-05T06:26:31.251Z,99346.34
2023-02-05T06:28:39.295Z,99337.59
2023-02-05T06:30:47.410Z,99353.31
2023-02-05T06:32:55.645Z,99362.03
2023-02-05T06:35:06.571Z,99365.56
2023-02-05T06:37:14.503Z,99366.44
2023-02-05T06:39:25.049Z,99365.53
2023-02-05T06:41:33.084Z,99364.66
2023-02-05T06:43:41.105Z,99368.16
2023-02-05T06:45:49.180Z,99359.44
2023-02-05T06:47:57.682Z,99364.66
2023-02-05T06:50:09.385Z,99380.38
2023-02-05T06:52:17.205Z,99381.25
2023-02-05T06:54:24.969Z,99386.47
2023-02-05T06:56:33.032Z,99393.47
2023-02-05T06:58:43.837Z,99395.22
2023-02-05T07:00:52.152Z,99395.22
2023-02-05T07:02:59.978Z,99389.09
2023-02-05T07:05:11.286Z,99389.97
2023-02-05T07:07:19.397Z,99381.25
2023-02-05T07:09:28.808Z,99378.66
2023-02-05T07:11:36.805Z,99394.34
2023-02-05T07:13:44.668Z,99396.09
2023-02-05T07:15:53.724Z,99397.84
2023-02-05T07:18:01.915Z,99403.06
2023-02-05T07:20:13.789Z,99408.31
2023-02-05T07:22:21.901Z,99406.56
2023-02-05T07:24:30.143Z,99410.06
2023-02-05T07:26:38.826Z,99403.94
2023-02-05T07:28:47.226Z,99412.69
2023-02-05T07:30:56.464Z,99411.81
2023-02-05T07:33:04.528Z,99402.19
2023-02-05T07:35:14.903Z,99408.31
2023-02-05T07:37:24.519Z,99405.69
2023-02-05T07:39:33.452Z,99391.72
2023-02-05T07:41:41.344Z,99390.84
2023-02-05T07:43:55.673Z,99390.00
2023-02-05T07:46:06.179Z,99390.84
2023-02-05T07:48:14.047Z,99385.59
2023-02-05T07:50:24.532Z,99392.59
2023-02-05T07:52:32.281Z,99395.19
2023-02-05T07:54:40.225Z,99392.59
2023-02-05T07:56:48.327Z,99379.44
2023-02-05T07:58:56.059Z,99381.16
2023-02-05T08:01:04.828Z,99389.06
2023-02-05T08:03:13.067Z,99386.44
2023-02-05T08:05:21.348Z,99397.84
2023-02-05T08:07:31.880Z,99396.94
2023-02-05T08:09:40.276Z,99386.44
2023-02-05T08:11:48.956Z,99375.94
2023-02-05T08:13:59.728Z,99381.19
2023-02-05T08:16:09.725Z,99376.81
2023-02-05T08:18:18.076Z,99385.53
2023-02-05T08:20:26.438Z,99386.41
2023-02-05T08:22:38.269Z,99384.69
2023-02-05T08:24:46.322Z,99379.34
2023-02-05T08:26:54.118Z,99372.38
2023-02-05T08:29:03.260Z,99382.84
2023-02-05T08:31:15.872Z,99388.09
2023-02-05T08:33:23.728Z,99387.25
2023-02-05T08:35:31.557Z,99389.03
2023-02-05T08:37:41.971Z,99376.75
2023-02-05T08:39:50.544Z,99376.72
2023-02-05T08:41:58.701Z,99384.59
2023-02-05T08:44:08.984Z,99374.97
2023-02-05T08:46:19.478Z,99378.47
2023-02-05T08:48:27.357Z,99373.19
2023-02-05T08:50:35.383Z,99373.19
2023-02-05T08:52:46.125Z,99362.69
2023-02-05T08:54:53.984Z,99360.91
2023-02-05T08:57:02.700Z,99355.63
2023-02-05T08:59:11.209Z,99360.00
2023-02-05T09:01:20.279Z,99354.72
2023-02-05T09:03:28.162Z,99356.16
2023-02-05T09:05:36.380Z,99353.56
2023-02-05T09:07:47.913Z,99341.31
2023-02-05T09:09:56.541Z,99336.16
2023-02-05T09:12:04.376Z,99325.66
2023-02-05T09:14:12.774Z,99320.38
2023-02-05T09:16:20.873Z,99319.47
2023-02-05T09:18:29.531Z,99318.50
2023-02-05T09:20:37.894Z,99323.13
2023-02-05T09:22:48.487Z,99316.94
2023-02-05T09:24:56.275Z,99315.19
2023-02-05T09:27:06.507Z,99327.44
2023-02-05T09:29:14.513Z,99330.03
2023-02-05T09:31:23.964Z,99330.91
2023-02-05T09:33:31.971Z,99328.25
2023-02-05T09:35:40.071Z,99332.59
2023-02-05T09:37:50.672Z,99322.81
2023-02-05T09:42:36.899Z,99314.88
2023-02-05T09:44:54.684Z,99315.88
2023-02-05T09:47:14.143Z,99312.44
2023-02-05T09:49:31.501Z,99303.66
2023-02-05T09:51:44.156Z,99298.31
2023-02-05T09:53:58.664Z,99289.50
2023-02-05T09:56:11.250Z,99297.53
2023-02-05T09:58:23.624Z,99296.63
2023-02-05T10:00:35.314Z,99280.13
2023-02-05T10:02:52.002Z,99273.06
2023-02-05T10:05:00.378Z,99267.06
2023-02-05T10:07:25.121Z,99258.41
2023-02-05T10:09:50.006Z,99255.84
2023-02-05T10:12:06.697Z,99247.13
2023-02-05T10:14:27.363Z,99244.53
2023-02-05T10:17:04.096Z,99246.34
2023-02-05T10:19:44.459Z,99233.22
2023-02-05T10:22:11.830Z,99226.16
2023-02-05T10:24:39.391Z,99223.47
2023-02-05T10:26:52.893Z,99210.41
2023-02-05T10:29:15.661Z,99206.19
2023-02-05T10:31:42.671Z,99201.00
2023-02-05T10:33:56.203Z,99201.97
2023-02-05T10:36:06.873Z,99197.53
2023-02-05T10:38:25.128Z,99188.78
2023-02-05T10:40:39.445Z,99187.06
2023-02-05T10:42:54.547Z,99174.78
2023-02-05T10:45:19.221Z,99170.47
2023-02-05T10:47:46.396Z,99159.97
2023-02-05T10:49:58.492Z,99156.41
2023-02-05T10:52:06.500Z,99143.19
2023-02-05T10:54:23.692Z,99141.38
2023-02-05T10:56:31.748Z,99138.78
2023-02-05T10:58:49.931Z,99130.88
2023-02-05T11:00:58.251Z,99135.19
2023-02-05T11:03:08.481Z,99125.72
2023-02-05T11:05:25.344Z,99124.81
2023-02-05T11:07:43.961Z,99124.78
2023-02-05T11:09:51.864Z,99120.28
2023-02-05T11:12:02.082Z,99118.41
2023-02-05T11:14:28.454Z,99115.06
2023-02-05T11:16:42.209Z,99109.78
2023-02-05T11:18:59.338Z,99109.13
2023-02-05T11:21:09.728Z,99102.81
2023-02-05T11:23:22.978Z,99096.72
2023-02-05T11:25:31.570Z,99102.00
2023-02-05T11:27:39.911Z,99104.59
2023-02-05T11:29:50.736Z,99093.25
2023-02-05T11:31:59.008Z,99089.69
2023-02-05T11:34:20.027Z,99086.03
2023-02-05T11:36:28.490Z,99073.66
2023-02-05T11:38:45.731Z,99059.81
2023-02-05T11:40:57.275Z,99062.31
2023-02-05T11:43:08.863Z,99065.84
2023-02-05T11:45:23.310Z,99068.59
2023-02-05T11:47:34.791Z,99068.59
2023-02-05T11:49:44.588Z,99058.81
2023-02-05T11:51:55.700Z,99057.94
2023-02-05T11:54:07.137Z,99050.03
2023-02-05T11:56:25.103Z,99045.59
2023-02-05T11:58:37.454Z,99047.16
2023-02-05T12:00:57.912Z,99045.47
2023-02-05T12:03:09.736Z,99043.59
2023-02-05T12:05:22.639Z,99038.28
2023-02-05T12:07:36.786Z,99042.69
2023-02-05T12:09:48.202Z,99035.47
2023-02-05T12:12:06.868Z,99030.09
2023-02-05T12:14:24.342Z,99030.91
2023-02-05T12:16:46.556Z,99030.03
2023-02-05T12:19:07.835Z,99029.09
2023-02-05T12:21:26.462Z,99034.66
2023-02-05T12:23:50.175Z,99023.19
2023-02-05T12:26:20.405Z,99024.75
2023-02-05T12:28:40.207Z,99021.22
2023-02-05T12:31:00.258Z,99029.25
2023-02-05T12:33:31.545Z,99017.88
2023-02-05T12:35:56.620Z,99010.78
2023-02-05T12:38:21.079Z,99006.41
2023-02-05T12:40:47.228Z,99006.19
2023-02-05T12:43:05.185Z,99004.38
2023-02-05T12:45:42.633Z,99001.72
2023-02-05T12:48:04.574Z,98997.28
2023-02-05T12:50:37.739Z,98999.09
2023-02-05T12:53:04.616Z,98991.84
2023-02-05T12:55:27.496Z,98997.84
2023-02-05T12:57:44.276Z,99002.22
2023-02-05T12:59:57.243Z,98997.72
2023-02-05T13:02:10.276Z,98992.94
2023-02-05T13:04:30.340Z,98997.06
2023-02-05T13:06:46.031Z,99007.19
2023-02-05T13:08:58.618Z,99005.91
2023-02-05T13:11:12.428Z,99016.53
2023-02-05T13:13:28.113Z,99011.25
2023-02-05T13:15:43.378Z,99010.63
2023-02-05T13:18:04.067Z,99005.41
2023-02-05T13:20:22.858Z,99000.97
2023-02-05T13:22:51.401Z,98998.28
2023-02-05T13:25:15.806Z,98999.94
2023-02-05T13:27:42.555Z,98995.41
2023-02-05T13:29:54.182Z,98986.41
2023-02-05T13:32:15.235Z,98985.53
2023-02-05T13:34:24.003Z,98987.19
2023-02-05T13:37:01.568Z,98982.91
2023-02-05T13:39:34.536Z,98990.69
2023-02-05T13:42:00.034Z,98993.31
2023-02-05T13:44:23.920Z,98995.06
2023-02-05T13:47:02.382Z,98993.34
2023-02-05T13:49:38.582Z,98997.72
2023-02-05T13:52:04.902Z,99004.59
2023-02-05T13:54:47.510Z,99004.38
2023-02-05T13:57:12.820Z,99001.22
2023-02-05T13:59:23.995Z,99014.31
2023-02-05T14:01:36.384Z,99008.78
2023-02-05T14:03:56.052Z,99008.78
2023-02-05T14:06:16.887Z,99024.03
2023-02-05T14:08:28.099Z,99024.97
2023-02-05T14:10:44.993Z,99023.16
2023-02-05T14:12:52.964Z,99014.22
2023-02-05T14:15:39.273Z,99019.34
2023-02-05T14:17:58.648Z,99021.06
2023-02-05T14:20:07.407Z,99014.91
2023-02-05T14:22:36.754Z,99019.28
2023-02-05T14:24:53.117Z,99023.50
2023-02-05T14:27:03.737Z,99016.56
2023-02-05T14:29:43.464Z,99024.19
2023-02-05T14:31:54.019Z,99026.28
2023-02-05T14:34:45.482Z,99027.19
2023-02-05T14:36:53.698Z,99027.19
2023-02-05T14:39:04.740Z,99030.03
2023-02-05T14:41:18.939Z,99026.69
2023-02-05T14:43:35.642Z,99025.63
2023-02-05T14:45:49.306Z,99023.00
2023-02-05T14:47:59.045Z,99026.59
2023-02-05T14:50:11.370Z,99037.06
2023-02-05T14:52:31.679Z,99043.53
2023-02-05T14:54:50.914Z,99048.06
2023-02-05T14:57:16.071Z,99043.63
2023-02-05T14:59:33.371Z,99060.38
2023-02-05T15:01:54.395Z,99055.00
2023-02-05T15:04:05.440Z,99050.84
2023-02-05T15:06:18.737Z,99054.25
2023-02-05T15:08:42.579Z,99056.16
2023-02-05T15:10:55.411Z,99055.47
2023-02-05T15:13:06.290Z,99047.41
2023-02-05T15:15:33.705Z,99044.75
2023-02-05T15:17:54.773Z,99043.84
2023-02-05T15:20:06.018Z,99033.22
2023-02-05T15:22:28.157Z,99047.38
2023-02-05T15:24:38.652Z,99047.44
2023-02-05T15:26:51.966Z,99052.69
2023-02-05T15:29:05.483Z,99051.72
2023-02-05T15:31:34.005Z,99053.41
2023-02-05T15:33:49.484Z,99065.53
2023-02-05T15:36:00.508Z,99069.09
2023-02-05T15:38:27.432Z,99068.38
2023-02-05T15:40:37.869Z,99064.88
2023-02-05T15:42:48.082Z,99067.63
2023-02-05T15:44:56.076Z,99068.50
2023-02-05T15:47:15.315Z,99067.72
2023-02-05T15:49:34.356Z,99063.22
2023-02-05T15:51:44.160Z,99071.31
2023-02-05T15:53:54.124Z,99071.31
2023-02-05T15:56:03.026Z,99066.94
2023-02-05T15:58:14.707Z,99073.09
2023-02-05T16:00:26.370Z,99067.06
2023-02-05T16:02:37.027Z,99071.28
2023-02-05T16:04:45.022Z,99069.41
2023-02-05T16:06:53.211Z,99083.41
2023-02-05T16:09:01.431Z,99079.16
2023-02-05T16:11:09.323Z,99079.03
2023-02-05T16:13:19.374Z,99080.00
2023-02-05T16:15:29.887Z,99081.78
2023-02-05T16:17:45.645Z,99075.63
2023-02-05T16:19:58.595Z,99075.75
2023-02-05T16:22:20.565Z,99070.38
2023-02-05T16:24:33.680Z,99080.94
2023-02-05T16:26:45.983Z,99077.50
2023-02-05T16:28:59.207Z,99077.41
2023-02-05T16:31:09.092Z,99078.28
2023-02-05T16:33:29.699Z,99083.59
2023-02-05T16:35:40.658Z,99081.16
2023-02-05T16:37:48.836Z,99085.50
2023-02-05T16:39:58.697Z,99085.59
2023-02-05T16:42:08.687Z,99084.72
2023-02-05T16:44:30.565Z,99080.28
2023-02-05T16:46:41.345Z,99090.75
2023-02-05T16:48:56.080Z,99089.78
2023-02-05T16:51:04.376Z,99098.56
2023-02-05T16:53:17.287Z,99093.38
2023-02-05T16:55:44.891Z,99090.69
2023-02-05T16:58:05.203Z,99092.38
2023-02-05T17:00:23.756Z,99094.88
2023-02-05T17:02:36.699Z,99093.16
2023-02-05T17:04:47.310Z,99101.09
2023-02-05T17:06:57.003Z,99102.91
2023-02-05T17:09:06.139Z,99102.19
2023-02-05T17:11:40.034Z,99101.28
2023-02-05T17:13:49.094Z,99103.84
2023-02-05T17:15:56.979Z,99100.41
2023-02-05T17:18:21.701Z,99103.84
2023-02-05T17:20:33.304Z,99110.78
2023-02-05T17:22:41.536Z,99107.25
2023-02-05T17:24:52.264Z,99108.22
2023-02-05T17:27:00.823Z,99111.75
2023-02-05T17:29:11.715Z,99097.72
2023-02-05T17:31:27.527Z,99101.19
2023-02-05T17:33:39.128Z,99097.75
2023-02-05T17:35:50.595Z,99098.47
2023-02-05T17:37:58.815Z,99095.06
2023-02-05T17:40:10.470Z,99096.69
2023-02-05T17:42:22.697Z,99102.88
2023-02-05T17:44:30.977Z,99104.56
2023-02-05T17:46:38.938Z,99104.63
2023-02-05T17:48:47.057Z,99100.25
2023-02-05T17:50:59.480Z,99101.19
2023-02-05T17:53:07.533Z,99099.31
2023-02-05T17:55:17.617Z,99106.31
2023-02-05T17:57:28.270Z,99114.19
2023-02-05T17:59:36.697Z,99111.63
2023-02-05T18:01:46.180Z,99113.53
2023-02-05T18:03:55.515Z,99119.63
2023-02-05T18:06:06.291Z,99113.53
2023-02-05T18:08:14.998Z,99114.41
2023-02-05T18:10:27.268Z,99111.81
2023-02-05T18:12:35.434Z,99109.09
2023-02-05T18:14:43.850Z,99105.56
2023-02-05T18:16:52.231Z,99102.03
2023-02-05T18:19:00.580Z,99110.00
2023-02-05T18:21:12.357Z,99116.91
2023-02-05T18:23:28.775Z,99115.19
2023-02-05T18:25:37.138Z,99116.94
2023-02-05T18:27:49.201Z,99120.34
2023-02-05T18:29:57.806Z,99137.81
2023-02-05T18:32:06.311Z,99136.13
2023-02-05T18:34:14.263Z,99131.72
2023-02-05T18:36:24.888Z,99136.97
2023-02-05T18:38:34.264Z,99145.78
2023-02-05T18:40:42.797Z,99153.75
2023-02-05T18:42:53.861Z,99158.84
2023-02-05T18:45:01.778Z,99164.22
2023-02-05T18:47:11.007Z,99175.66
2023-02-05T18:49:28.517Z,99172.22
2023-02-05T18:51:39.706Z,99179.38
2023-02-05T18:53:48.476Z,99177.53
2023-02-05T18:56:03.161Z,99182.84
2023-02-05T18:58:12.309Z,99189.94
2023-02-05T19:00:20.904Z,99191.63
2023-02-05T19:02:28.870Z,99193.44
2023-02-05T19:04:37.796Z,99195.16
2023-02-05T19:06:53.386Z,99188.19
2023-02-05T19:09:03.422Z,99191.75
2023-02-05T19:11:12.380Z,99189.91
2023-02-05T19:13:20.918Z,99190.00
2023-02-05T19:15:30.369Z,99197.88
2023-02-05T19:17:38.403Z,99199.63
2023-02-05T19:19:47.111Z,99194.41
2023-02-05T19:22:01.828Z,99208.50
2023-02-05T19:24:11.473Z,99199.81
2023-02-05T19:26:22.057Z,99203.28
2023-02-05T19:28:32.416Z,99210.28
2023-02-05T19:30:40.692Z,99214.72
2023-02-05T19:32:49.022Z,99205.88
2023-02-05T19:34:59.755Z,99219.13
2023-02-05T19:37:12.350Z,99212.16
2023-02-05T19:39:20.453Z,99223.50
2023-02-05T19:41:31.887Z,99221.72
2023-02-05T19:43:44.184Z,99217.44
2023-02-05T19:45:53.301Z,99224.50
2023-02-05T19:48:01.489Z,99223.63
2023-02-05T19:50:12.138Z,99224.41
2023-02-05T19:52:23.122Z,99227.03
2023-02-05T19:54:31.836Z,99235.81
2023-02-05T19:56:41.425Z,99233.22
2023-02-05T19:58:51.454Z,99234.91
2023-02-05T20:00:59.431Z,99241.06
2023-02-05T20:03:07.929Z,99245.41
2023-02-05T20:05:16.031Z,99242.78
2023-02-05T20:07:26.655Z,99245.41
2023-02-05T20:09:34.974Z,99251.56
2023-02-05T20:11:44.441Z,99250.75
2023-02-05T20:13:53.974Z,99259.44
2023-02-05T20:16:05.362Z,99265.53
2023-02-05T20:18:13.379Z,99279.59
2023-02-05T20:20:32.929Z,99286.63
2023-02-05T20:22:44.645Z,99291.91
2023-02-05T20:24:53.290Z,99299.84
2023-02-05T20:27:01.551Z,99304.19
2023-02-05T20:29:22.321Z,99305.06
2023-02-05T20:31:42.033Z,99308.59
2023-02-05T20:33:51.449Z,99314.69
2023-02-05T20:36:06.118Z,99307.72
2023-02-05T20:38:16.624Z,99304.19
2023-02-05T20:40:24.722Z,99308.56
2023-02-05T20:42:32.752Z,99318.19
2023-02-05T20:44:40.990Z,99321.72
2023-02-05T20:46:49.177Z,99323.47
2023-02-05T20:48:57.580Z,99319.97
2023-02-05T20:51:11.350Z,99320.00
2023-02-05T20:53:21.973Z,99326.09
2023-02-05T20:55:31.164Z,99328.75
2023-02-05T20:57:41.549Z,99324.38
2023-02-05T20:59:50.023Z,99326.06
2023-02-05T21:01:58.758Z,99326.13
2023-02-05T21:04:09.149Z,99333.09
2023-02-05T21:06:18.476Z,99333.09
2023-02-05T21:08:29.287Z,99337.47
2023-02-05T21:10:37.510Z,99344.44
2023-02-05T21:12:45.969Z,99341.81
2023-02-05T21:14:54.072Z,99347.94
2023-02-05T21:17:02.778Z,99350.53
2023-02-05T21:19:12.439Z,99355.78
2023-02-05T21:21:24.959Z,99356.66
2023-02-05T21:23:37.822Z,99354.78
2023-02-05T21:25:46.809Z,99360.88
2023-02-05T21:27:55.347Z,99376.66
2023-02-05T21:30:03.552Z,99377.50
2023-02-05T21:32:11.640Z,99386.25
2023-02-05T21:34:22.482Z,99382.72
2023-02-05T21:36:30.688Z,99385.34
2023-02-05T21:38:44.548Z,99387.13
2023-02-05T21:40:53.420Z,99402.03
2023-02-05T21:43:01.392Z,99403.75
2023-02-05T21:45:11.070Z,99408.06
2023-02-05T21:47:19.576Z,99410.69
2023-02-05T21:49:27.520Z,99409.88
2023-02-05T21:51:37.879Z,99415.16
2023-02-05T21:53:49.148Z,99420.34
2023-02-05T21:55:58.047Z,99422.09
2023-02-05T21:58:08.548Z,99419.41
2023-02-05T22:00:17.483Z,99424.66
2023-02-05T22:02:25.687Z,99426.44
2023-02-05T22:04:34.192Z,99426.47
2023-02-05T22:06:43.064Z,99431.72
2023-02-05T22:08:54.032Z,99431.69
2023-02-05T22:11:04.657Z,99427.25
2023-02-05T22:13:12.668Z,99435.09
2023-02-05T22:15:21.184Z,99437.72
2023-02-05T22:17:29.825Z,99440.41
2023-02-05T22:19:39.378Z,99438.66
2023-02-05T22:21:47.204Z,99443.06
2023-02-05T22:24:00.176Z,99438.66
2023-02-05T22:26:09.471Z,99446.50
2023-02-05T22:28:18.963Z,99438.63
2023-02-05T22:30:26.909Z,99441.28
2023-02-05T22:32:34.899Z,99447.38
2023-02-05T22:34:43.658Z,99457.81
2023-02-05T22:36:51.973Z,99465.63
2023-02-05T22:39:03.154Z,99461.25
2023-02-05T22:41:12.621Z,99463.03
2023-02-05T22:43:20.629Z,99464.81
2023-02-05T22:45:28.797Z,99464.75
2023-02-05T22:47:36.733Z,99469.09
2023-02-05T22:49:44.574Z,99479.63
2023-02-05T22:51:55.871Z,99485.69
2023-02-05T22:54:07.718Z,99481.34
2023-02-05T22:56:16.251Z,99486.59
2023-02-05T22:58:24.251Z,99493.66
2023-02-05T23:00:32.932Z,99494.50
2023-02-05T23:02:40.725Z,99498.09
2023-02-05T23:04:48.636Z,99491.09
2023-02-05T23:06:56.483Z,99502.47
2023-02-05T23:09:09.326Z,99505.94
2023-02-05T23:11:17.204Z,99505.09
2023-02-05T23:13:25.377Z,99506.84
2023-02-05T23:15:33.675Z,99500.72
2023-02-05T23:17:41.784Z,99501.56
2023-02-05T23:19:53.276Z,99499.78
2023-02-05T23:22:01.165Z,99512.94
2023-02-05T23:24:12.447Z,99520.84
2023-02-05T23:26:23.472Z,99523.41
2023-02-05T23:28:31.332Z,99519.91
2023-02-05T23:30:39.387Z,99526.88
2023-02-05T23:32:47.277Z,99523.38
2023-02-05T23:34:55.108Z,99526.88
2023-02-05T23:37:02.920Z,99529.53
2023-02-05T23:39:13.825Z,99519.00
2023-02-05T23:41:35.941Z,99526.06
2023-02-05T23:43:44.073Z,99527.81
2023-02-05T23:45:52.213Z,99530.41
2023-02-05T23:48:01.728Z,99527.81
2023-02-05T23:50:10.495Z,99534.78
2023-02-05T23:52:18.502Z,99540.00
2023-02-05T23:54:30.090Z,99546.09
2023-02-05T23:56:38.025Z,99538.25
2023-02-05T23:58:46.267Z,99535.63
